createdAt,value
2023-04-08T00:01:14.803Z,101041.69
2023-04-08T00:03:42.993Z,101048.72
2023-04-08T00:06:10.622Z,101042.66
2023-04-08T00:08:38.775Z,101040.09
2023-04-08T00:11:07.440Z,101040.78
2023-04-08T00:13:37.947Z,101042.50
2023-04-08T00:16:06.003Z,101035.47
2023-04-08T00:18:33.582Z,101029.03
2023-04-08T00:21:01.028Z,101033.38
2023-04-08T00:23:28.603Z,101039.56
2023-04-08T00:25:56.701Z,101038.69
2023-04-08T00:28:24.844Z,101039.34
2023-04-08T00:30:53.978Z,101039.06
2023-04-08T00:33:21.771Z,101030.50
2023-04-08T00:35:50.297Z,101028.97
2023-04-08T00:38:18.385Z,101033.19
2023-04-08T00:40:46.470Z,101022.09
2023-04-08T00:43:13.935Z,101024.06
2023-04-08T00:45:41.943Z,101022.53
2023-04-08T00:48:10.074Z,101022.00
2023-04-08T00:50:37.992Z,101023.25
2023-04-08T00:53:05.643Z,101032.97
2023-04-08T00:55:34.022Z,101019.41
2023-04-08T00:58:01.652Z,101027.69
2023-04-08T01:00:30.208Z,101028.47
2023-04-08T01:03:07.309Z,101035.50
2023-04-08T01:05:43.995Z,101030.38
2023-04-08T01:08:11.967Z,101029.34
2023-04-08T01:10:41.516Z,101026.13
2023-04-08T01:13:10.250Z,101023.00
2023-04-08T01:15:39.116Z,101024.25
2023-04-08T01:18:10.910Z,101026.31
2023-04-08T01:20:39.375Z,101031.16
2023-04-08T01:23:37.293Z,101025.31
2023-04-08T01:26:05.348Z,101025.16
2023-04-08T01:28:32.220Z,101031.16
2023-04-08T01:31:01.721Z,101026.56
2023-04-08T01:33:29.205Z,101033.16
2023-04-08T01:35:56.542Z,101028.94
2023-04-08T01:38:23.978Z,101029.09
2023-04-08T01:40:51.968Z,101028.38
2023-04-08T01:43:19.944Z,101029.81
2023-04-08T01:45:48.140Z,101025.44
2023-04-08T01:48:15.018Z,101024.25
2023-04-08T01:50:42.620Z,101032.75
2023-04-08T01:53:10.593Z,101033.53
2023-04-08T01:55:38.867Z,101041.75
2023-04-08T01:58:06.095Z,101044.00
2023-04-08T02:00:35.215Z,101035.19
2023-04-08T02:03:03.290Z,101035.75
2023-04-08T02:05:31.494Z,101031.47
2023-04-08T02:07:59.603Z,101030.59
2023-04-08T02:10:27.885Z,101035.06
2023-04-08T02:12:55.114Z,101041.19
2023-04-08T02:15:23.114Z,101026.06
2023-04-08T02:17:56.420Z,101028.78
2023-04-08T02:21:10.516Z,101033.16
2023-04-08T02:23:40.045Z,101027.06
2023-04-08T02:26:09.075Z,101026.06
2023-04-08T02:28:36.671Z,101027.59
2023-04-08T02:31:05.867Z,101029.94
2023-04-08T02:33:34.097Z,101028.75
2023-04-08T02:36:00.956Z,101021.59
2023-04-08T02:38:30.764Z,101024.06
2023-04-08T02:40:58.748Z,101026.53
2023-04-08T02:43:32.589Z,101022.31
2023-04-08T02:46:00.833Z,101021.50
2023-04-08T02:48:28.467Z,101024.72
2023-04-08T02:50:56.325Z,101029.34
2023-04-08T02:53:24.876Z,101022.28
2023-04-08T02:55:52.757Z,101022.19
2023-04-08T02:58:20.523Z,101017.28
2023-04-08T03:00:48.564Z,101026.97
2023-04-08T03:03:16.576Z,101013.88
2023-04-08T03:05:44.625Z,101017.19
2023-04-08T03:08:12.069Z,101020.66
2023-04-08T03:10:39.942Z,101022.56
2023-04-08T03:13:08.038Z,101021.97
2023-04-08T03:15:35.668Z,101012.69
2023-04-08T03:18:03.425Z,101015.44
2023-04-08T03:20:31.164Z,101030.28
2023-04-08T03:22:59.288Z,101031.94
2023-04-08T03:25:27.363Z,101031.91
2023-04-08T03:27:58.311Z,101040.75
2023-04-08T03:30:26.350Z,101033.72
2023-04-08T03:32:54.106Z,101030.59
2023-04-08T03:35:21.853Z,101029.22
2023-04-08T03:37:49.748Z,101023.66
2023-04-08T03:40:18.419Z,101026.38
2023-04-08T03:42:46.859Z,101032.56
2023-04-08T03:45:14.897Z,101031.13
2023-04-08T03:47:42.888Z,101031.56
2023-04-08T03:50:12.665Z,101032.09
2023-04-08T03:52:40.544Z,101038.44
2023-04-08T03:55:10.598Z,101040.78
2023-04-08T03:57:38.708Z,101037.84
2023-04-08T04:00:10.097Z,101035.72
2023-04-08T04:02:38.393Z,101043.41
2023-04-08T04:05:07.214Z,101040.19
2023-04-08T04:07:35.621Z,101046.56
2023-04-08T04:10:03.391Z,101046.84
2023-04-08T04:12:33.302Z,101044.66
2023-04-08T04:15:01.059Z,101047.69
2023-04-08T04:17:29.111Z,101046.31
2023-04-08T04:19:56.739Z,101052.53
2023-04-08T04:22:24.717Z,101049.53
2023-04-08T04:24:52.860Z,101040.03
2023-04-08T04:27:20.936Z,101039.28
2023-04-08T04:29:49.181Z,101038.66
2023-04-08T04:32:17.065Z,101048.09
2023-04-08T04:34:44.789Z,101052.25
2023-04-08T04:37:12.416Z,101052.16
2023-04-08T04:39:47.628Z,101059.94
2023-04-08T04:42:15.628Z,101066.31
2023-04-08T04:44:43.207Z,101068.16
2023-04-08T04:47:11.527Z,101066.72
2023-04-08T04:49:40.384Z,101074.72
2023-04-08T04:52:08.230Z,101070.16
2023-04-08T04:54:36.188Z,101082.00
2023-04-08T04:57:03.848Z,101071.44
2023-04-08T04:59:31.950Z,101076.78
2023-04-08T05:02:00.531Z,101077.91
2023-04-08T05:04:28.650Z,101076.34
2023-04-08T05:06:56.417Z,101082.13
2023-04-08T05:09:24.591Z,101081.47
2023-04-08T05:11:52.461Z,101091.16
2023-04-08T05:14:20.033Z,101097.97
2023-04-08T05:16:48.300Z,101093.56
2023-04-08T05:19:16.042Z,101097.72
2023-04-08T05:21:44.022Z,101099.88
2023-04-08T05:24:11.952Z,101098.75
2023-04-08T05:26:39.676Z,101102.13
2023-04-08T05:29:07.633Z,101106.28
2023-04-08T05:31:35.570Z,101103.41
2023-04-08T05:34:03.547Z,101095.88
2023-04-08T05:36:31.877Z,101101.72
2023-04-08T05:39:01.116Z,101112.44
2023-04-08T05:41:30.164Z,101101.72
2023-04-08T05:44:00.933Z,101106.91
2023-04-08T05:46:29.032Z,101109.88
2023-04-08T05:48:57.256Z,101111.88
2023-04-08T05:51:25.415Z,101110.72
2023-04-08T05:53:53.718Z,101125.63
2023-04-08T05:56:23.462Z,101121.28
2023-04-08T05:58:51.267Z,101123.84
2023-04-08T06:01:22.944Z,101130.78
2023-04-08T06:03:50.412Z,101134.69
2023-04-08T06:06:20.677Z,101133.25
2023-04-08T06:08:48.784Z,101138.81
2023-04-08T06:11:16.439Z,101133.63
2023-04-08T06:13:44.522Z,101135.97
2023-04-08T06:16:13.830Z,101138.91
2023-04-08T06:18:41.691Z,101140.06
2023-04-08T06:21:09.864Z,101132.75
2023-04-08T06:23:37.806Z,101148.50
2023-04-08T06:26:05.956Z,101139.78
2023-04-08T06:28:34.041Z,101146.22
2023-04-08T06:31:01.862Z,101145.06
2023-04-08T06:33:29.438Z,101148.69
2023-04-08T06:36:06.358Z,101143.03
2023-04-08T06:38:33.462Z,101147.91
2023-04-08T06:41:07.179Z,101153.25
2023-04-08T06:43:35.575Z,101155.41
2023-04-08T06:46:02.618Z,101150.25
2023-04-08T06:48:33.070Z,101148.81
2023-04-08T06:51:00.880Z,101148.72
2023-04-08T06:53:33.624Z,101147.16
2023-04-08T06:56:01.464Z,101147.22
2023-04-08T06:58:29.912Z,101149.84
2023-04-08T07:00:57.597Z,101143.75
2023-04-08T07:03:25.107Z,101145.16
2023-04-08T07:05:53.397Z,101150.09
2023-04-08T07:08:20.969Z,101155.81
2023-04-08T07:10:48.772Z,101156.16
2023-04-08T07:13:17.022Z,101155.88
2023-04-08T07:15:45.103Z,101145.34
2023-04-08T07:18:14.028Z,101144.25
2023-04-08T07:20:49.420Z,101152.31
2023-04-08T07:23:17.841Z,101155.19
2023-04-08T07:25:46.097Z,101160.47
2023-04-08T07:28:14.145Z,101157.63
2023-04-08T07:30:42.091Z,101157.34
2023-04-08T07:33:09.758Z,101161.47
2023-04-08T07:35:38.026Z,101158.78
2023-04-08T07:38:10.140Z,101164.78
2023-04-08T07:40:38.069Z,101161.31
2023-04-08T07:43:05.758Z,101164.88
2023-04-08T07:45:33.780Z,101160.38
2023-04-08T07:48:01.616Z,101171.66
2023-04-08T07:50:29.667Z,101172.50
2023-04-08T07:52:57.322Z,101171.38
2023-04-08T07:55:25.499Z,101177.06
2023-04-08T07:57:53.193Z,101180.34
2023-04-08T08:00:21.906Z,101175.59
2023-04-08T08:02:50.228Z,101177.38
2023-04-08T08:05:18.890Z,101168.41
2023-04-08T08:07:46.890Z,101171.00
2023-04-08T08:10:14.386Z,101171.41
2023-04-08T08:12:42.117Z,101164.88
2023-04-08T08:15:12.422Z,101159.28
2023-04-08T08:17:40.379Z,101163.06
2023-04-08T08:20:10.662Z,101158.44
2023-04-08T08:22:47.120Z,101156.31
2023-04-08T08:25:26.127Z,101159.25
2023-04-08T08:27:55.506Z,101161.44
2023-04-08T08:30:29.502Z,101158.22
2023-04-08T08:32:59.186Z,101158.63
2023-04-08T08:35:26.948Z,101159.66
2023-04-08T08:37:55.339Z,101158.97
2023-04-08T08:40:23.670Z,101157.47
2023-04-08T08:42:52.549Z,101159.38
2023-04-08T08:45:20.596Z,101167.38
2023-04-08T08:47:50.830Z,101167.63
2023-04-08T08:50:19.371Z,101168.94
2023-04-08T08:52:51.303Z,101169.19
2023-04-08T08:55:50.245Z,101172.00
2023-04-08T08:58:13.872Z,101169.72
2023-04-08T09:00:45.176Z,101169.19
2023-04-08T09:03:27.664Z,101166.19
2023-04-08T09:05:59.310Z,101161.88
2023-04-08T09:08:55.960Z,101167.00
2023-04-08T09:11:23.909Z,101163.88
2023-04-08T09:13:54.364Z,101170.06
2023-04-08T09:16:23.524Z,101158.88
2023-04-08T09:18:51.677Z,101159.84
2023-04-08T09:21:19.266Z,101157.44
2023-04-08T09:23:46.003Z,101156.72
2023-04-08T09:26:39.297Z,101156.97
2023-04-08T09:29:24.016Z,101150.41
2023-04-08T09:31:56.784Z,101149.66
2023-04-08T09:34:24.459Z,101155.03
2023-04-08T09:36:52.448Z,101154.44
2023-04-08T09:39:20.564Z,101145.72
2023-04-08T09:41:50.484Z,101155.38
2023-04-08T09:44:18.647Z,101153.09
2023-04-08T09:46:51.630Z,101155.94
2023-04-08T09:49:27.292Z,101151.47
2023-04-08T09:52:01.216Z,101141.91
2023-04-08T09:55:07.116Z,101144.69
2023-04-08T09:57:51.736Z,101140.50
2023-04-08T10:00:19.299Z,101142.50
2023-04-08T10:03:12.373Z,101138.22
2023-04-08T10:05:41.133Z,101140.91
2023-04-08T10:08:08.442Z,101139.25
2023-04-08T10:10:37.126Z,101144.63
2023-04-08T10:13:04.853Z,101142.28
2023-04-08T10:15:34.032Z,101141.50
2023-04-08T10:18:08.034Z,101139.94
2023-04-08T10:20:35.226Z,101137.28
2023-04-08T10:23:03.517Z,101137.13
2023-04-08T10:25:34.671Z,101135.44
2023-04-08T10:28:23.039Z,101134.69
2023-04-08T10:30:54.846Z,101146.06
2023-04-08T10:33:54.241Z,101132.25
2023-04-08T10:36:22.421Z,101128.88
2023-04-08T10:38:50.114Z,101133.03
2023-04-08T10:41:24.550Z,101132.06
2023-04-08T10:43:52.745Z,101123.47
2023-04-08T10:46:21.032Z,101122.75
2023-04-08T10:49:01.887Z,101123.72
2023-04-08T10:51:35.152Z,101131.69
2023-04-08T10:54:32.800Z,101124.38
2023-04-08T10:57:00.848Z,101120.66
2023-04-08T10:59:30.599Z,101123.56
2023-04-08T11:01:58.743Z,101119.41
2023-04-08T11:04:27.263Z,101121.16
2023-04-08T11:06:54.876Z,101117.69
2023-04-08T11:09:22.949Z,101122.06
2023-04-08T11:11:50.161Z,101122.91
2023-04-08T11:14:19.685Z,101119.41
2023-04-08T11:16:48.126Z,101109.69
2023-04-08T11:19:15.607Z,101110.59
2023-04-08T11:21:43.526Z,101117.50
2023-04-08T11:24:12.089Z,101111.31
2023-04-08T11:26:39.775Z,101105.16
2023-04-08T11:29:07.042Z,101100.66
2023-04-08T11:31:34.794Z,101099.63
2023-04-08T11:34:02.382Z,101103.00
2023-04-08T11:36:30.425Z,101093.88
2023-04-08T11:38:58.478Z,101095.47
2023-04-08T11:41:26.695Z,101090.34
2023-04-08T11:43:55.825Z,101101.16
2023-04-08T11:46:23.071Z,101095.97
2023-04-08T11:49:23.305Z,101091.72
2023-04-08T11:52:00.476Z,101088.53
2023-04-08T11:54:28.882Z,101083.59
2023-04-08T11:56:58.304Z,101082.88
2023-04-08T11:59:28.942Z,101081.16
2023-04-08T12:01:57.502Z,101068.97
2023-04-08T12:04:25.671Z,101075.06
2023-04-08T12:06:58.289Z,101066.34
2023-04-08T12:09:26.353Z,101064.59
2023-04-08T12:11:53.860Z,101070.72
2023-04-08T12:14:26.782Z,101064.63
2023-04-08T12:16:56.508Z,101066.34
2023-04-08T12:19:24.554Z,101060.25
2023-04-08T12:21:52.702Z,101068.09
2023-04-08T12:24:23.627Z,101065.31
2023-04-08T12:26:51.304Z,101063.34
2023-04-08T12:29:19.600Z,101056.63
2023-04-08T12:31:48.355Z,101058.72
2023-04-08T12:34:16.908Z,101055.00
2023-04-08T12:36:45.008Z,101057.97
2023-04-08T12:39:13.028Z,101055.59
2023-04-08T12:41:41.227Z,101059.25
2023-04-08T12:44:09.301Z,101055.00
2023-04-08T12:46:37.369Z,101061.06
2023-04-08T12:49:06.008Z,101049.69
2023-04-08T12:51:34.068Z,101050.47
2023-04-08T12:54:02.099Z,101054.84
2023-04-08T12:56:30.086Z,101046.75
2023-04-08T12:58:58.048Z,101044.69
2023-04-08T13:01:25.420Z,101040.78
2023-04-08T13:03:53.479Z,101037.44
2023-04-08T13:06:21.702Z,101038.13
2023-04-08T13:08:50.675Z,101040.84
2023-04-08T13:11:18.914Z,101037.09
2023-04-08T13:13:46.945Z,101041.16
2023-04-08T13:16:15.664Z,101038.00
2023-04-08T13:18:43.938Z,101033.72
2023-04-08T13:21:12.252Z,101031.66
2023-04-08T13:23:40.178Z,101024.25
2023-04-08T13:26:07.835Z,101025.31
2023-04-08T13:28:49.763Z,101024.47
2023-04-08T13:31:24.280Z,101026.88
2023-04-08T13:33:58.380Z,101023.78
2023-04-08T13:36:28.727Z,101021.63
2023-04-08T13:38:56.934Z,101023.41
2023-04-08T13:41:25.479Z,101022.38
2023-04-08T13:43:53.814Z,101025.66
2023-04-08T13:46:22.038Z,101021.19
2023-04-08T13:48:50.527Z,101016.16
2023-04-08T13:51:18.665Z,101019.19
2023-04-08T13:53:46.302Z,101013.97
2023-04-08T13:56:13.940Z,101014.25
2023-04-08T13:58:41.728Z,101018.88
2023-04-08T14:01:09.975Z,101013.22
2023-04-08T14:03:37.845Z,101011.41
2023-04-08T14:06:06.805Z,101016.63
2023-04-08T14:08:35.399Z,101016.25
2023-04-08T14:11:03.586Z,101010.78
2023-04-08T14:13:32.459Z,101011.38
2023-04-08T14:16:02.405Z,101011.53
2023-04-08T14:18:31.202Z,101011.69
2023-04-08T14:20:59.388Z,101000.72
2023-04-08T14:23:27.861Z,101006.66
2023-04-08T14:25:55.842Z,101009.75
2023-04-08T14:28:23.833Z,101005.25
2023-04-08T14:30:51.579Z,101008.31
2023-04-08T14:33:19.233Z,100998.47
2023-04-08T14:35:47.855Z,101003.94
2023-04-08T14:38:16.301Z,101007.34
2023-04-08T14:40:44.346Z,101013.00
2023-04-08T14:43:13.643Z,101011.22
2023-04-08T14:45:41.667Z,101015.38
2023-04-08T14:48:09.345Z,101013.72
2023-04-08T14:50:36.978Z,101004.25
2023-04-08T14:53:04.901Z,101012.63
2023-04-08T14:55:32.879Z,101008.38
2023-04-08T14:58:01.292Z,101009.31
2023-04-08T15:00:28.926Z,101008.88
2023-04-08T15:02:57.092Z,101011.97
2023-04-08T15:05:25.372Z,101013.25
2023-04-08T15:07:53.445Z,101015.22
2023-04-08T15:10:24.076Z,101012.22
2023-04-08T15:12:52.236Z,101010.38
2023-04-08T15:15:20.250Z,101015.44
2023-04-08T15:17:50.138Z,101007.25
2023-04-08T15:20:20.252Z,101023.38
2023-04-08T15:22:48.163Z,101024.47
2023-04-08T15:25:16.177Z,101023.72
2023-04-08T15:27:44.097Z,101029.97
2023-04-08T15:30:13.323Z,101028.34
2023-04-08T15:32:41.973Z,101024.97
2023-04-08T15:35:11.476Z,101028.56
2023-04-08T15:37:39.151Z,101022.53
2023-04-08T15:40:11.764Z,101033.06
2023-04-08T15:42:39.790Z,101038.38
2023-04-08T15:45:09.822Z,101037.53
2023-04-08T15:47:37.325Z,101043.69
2023-04-08T15:50:06.537Z,101047.19
2023-04-08T15:52:35.240Z,101050.69
2023-04-08T15:55:02.919Z,101057.66
2023-04-08T15:57:32.344Z,101072.41
2023-04-08T16:00:00.446Z,101088.84
2023-04-08T16:02:28.447Z,101103.53
2023-04-08T16:04:56.069Z,101098.25
2023-04-08T16:07:24.840Z,101101.59
2023-04-08T16:09:53.001Z,101104.09
2023-04-08T16:12:20.625Z,101124.81
2023-04-08T16:14:48.145Z,101133.38
2023-04-08T16:17:16.483Z,101141.94
2023-04-08T16:19:44.608Z,101150.38
2023-04-08T16:22:13.097Z,101163.88
2023-04-08T16:24:41.140Z,101180.84
2023-04-08T16:27:09.334Z,101178.00
2023-04-08T16:29:36.870Z,101181.94
2023-04-08T16:32:05.375Z,101185.03
2023-04-08T16:34:32.674Z,101192.53
2023-04-08T16:37:00.729Z,101190.72
2023-04-08T16:39:28.855Z,101197.47
2023-04-08T16:41:56.341Z,101195.50
2023-04-08T16:44:23.988Z,101201.31
2023-04-08T16:46:51.863Z,101201.94
2023-04-08T16:49:19.698Z,101208.00
2023-04-08T16:51:47.543Z,101210.59
2023-04-08T16:54:15.510Z,101213.19
2023-04-08T16:56:45.621Z,101216.75
2023-04-08T16:59:13.643Z,101220.03
2023-04-08T17:01:45.776Z,101214.84
2023-04-08T17:04:13.820Z,101217.28
2023-04-08T17:06:42.265Z,101212.84
2023-04-08T17:09:09.957Z,101223.88
2023-04-08T17:11:37.822Z,101215.06
2023-04-08T17:14:05.710Z,101213.13
2023-04-08T17:16:33.645Z,101215.38
2023-04-08T17:19:01.820Z,101217.03
2023-04-08T17:21:29.309Z,101219.34
2023-04-08T17:23:57.042Z,101228.56
2023-04-08T17:26:25.043Z,101228.50
2023-04-08T17:28:53.096Z,101225.16
2023-04-08T17:31:20.910Z,101228.84
2023-04-08T17:33:49.198Z,101224.53
2023-04-08T17:36:17.846Z,101232.97
2023-04-08T17:38:47.360Z,101234.50
2023-04-08T17:41:21.603Z,101242.38
2023-04-08T17:43:58.405Z,101242.91
2023-04-08T17:46:26.757Z,101240.22
2023-04-08T17:48:54.831Z,101244.69
2023-04-08T17:51:23.517Z,101252.50
2023-04-08T17:53:51.414Z,101252.34
2023-04-08T17:56:19.564Z,101253.16
2023-04-08T17:58:48.336Z,101260.78
2023-04-08T18:01:16.167Z,101250.28
2023-04-08T18:03:44.836Z,101268.25
2023-04-08T18:06:12.675Z,101266.38
2023-04-08T18:08:40.452Z,101272.25
2023-04-08T18:11:07.801Z,101277.28
2023-04-08T18:13:35.326Z,101269.47
2023-04-08T18:16:02.725Z,101272.09
2023-04-08T18:18:30.768Z,101270.41
2023-04-08T18:20:58.379Z,101270.47
2023-04-08T18:23:26.646Z,101269.47
2023-04-08T18:25:54.619Z,101272.91
2023-04-08T18:28:22.912Z,101270.78
2023-04-08T18:30:57.318Z,101281.06
2023-04-08T18:33:25.717Z,101270.56
2023-04-08T18:35:53.478Z,101274.81
2023-04-08T18:38:20.878Z,101287.47
2023-04-08T18:40:49.045Z,101291.03
2023-04-08T18:43:16.657Z,101282.28
2023-04-08T18:45:44.152Z,101287.19
2023-04-08T18:48:12.487Z,101289.59
2023-04-08T18:50:40.397Z,101296.38
2023-04-08T18:53:08.048Z,101297.13
2023-04-08T18:55:38.725Z,101303.16
2023-04-08T18:58:06.350Z,101307.53
2023-04-08T19:00:34.292Z,101310.78
2023-04-08T19:03:03.552Z,101313.13
2023-04-08T19:05:33.089Z,101317.25
2023-04-08T19:08:03.503Z,101326.59
2023-04-08T19:10:31.928Z,101324.75
2023-04-08T19:12:59.246Z,101331.66
2023-04-08T19:15:27.344Z,101332.38
2023-04-08T19:17:55.090Z,101337.44
2023-04-08T19:20:23.135Z,101338.16
2023-04-08T19:22:50.495Z,101340.81
2023-04-08T19:25:19.940Z,101346.91
2023-04-08T19:27:47.733Z,101350.22
2023-04-08T19:30:15.541Z,101346.53
2023-04-08T19:32:43.185Z,101353.44
2023-04-08T19:35:13.501Z,101353.34
2023-04-08T19:37:41.155Z,101350.69
2023-04-08T19:40:11.436Z,101355.00
2023-04-08T19:42:39.701Z,101352.44
2023-04-08T19:45:10.968Z,101353.38
2023-04-08T19:47:39.726Z,101355.81
2023-04-08T19:50:10.606Z,101357.59
2023-04-08T19:52:39.369Z,101358.50
2023-04-08T19:55:08.082Z,101361.09
2023-04-08T19:57:37.383Z,101362.03
2023-04-08T20:00:07.155Z,101360.34
2023-04-08T20:02:34.968Z,101360.44
2023-04-08T20:05:03.297Z,101355.22
2023-04-08T20:07:31.000Z,101366.41
2023-04-08T20:09:58.935Z,101369.91
2023-04-08T20:12:26.908Z,101363.38
2023-04-08T20:14:54.618Z,101368.56
2023-04-08T20:17:21.817Z,101366.19
2023-04-08T20:19:49.924Z,101366.88
2023-04-08T20:22:17.619Z,101367.84
2023-04-08T20:24:46.121Z,101365.97
2023-04-08T20:27:14.141Z,101363.28
2023-04-08T20:29:42.949Z,101380.44
2023-04-08T20:32:11.061Z,101377.13
2023-04-08T20:34:38.647Z,101381.25
2023-04-08T20:37:07.393Z,101377.72
2023-04-08T20:39:35.123Z,101378.56
2023-04-08T20:42:02.933Z,101382.16
2023-04-08T20:44:31.302Z,101390.44
2023-04-08T20:46:59.461Z,101385.28
2023-04-08T20:49:27.379Z,101387.72
2023-04-08T20:51:55.462Z,101392.09
2023-04-08T20:54:23.465Z,101387.13
2023-04-08T20:56:51.419Z,101388.59
2023-04-08T20:59:19.213Z,101389.03
2023-04-08T21:01:46.909Z,101382.91
2023-04-08T21:04:15.237Z,101388.06
2023-04-08T21:06:42.938Z,101381.09
2023-04-08T21:09:11.502Z,101380.25
2023-04-08T21:11:39.376Z,101381.19
2023-04-08T21:14:07.385Z,101382.94
2023-04-08T21:16:35.441Z,101381.28
2023-04-08T21:19:04.071Z,101379.66
2023-04-08T21:21:32.355Z,101383.03
2023-04-08T21:24:00.666Z,101374.38
2023-04-08T21:26:28.298Z,101377.78
2023-04-08T21:28:55.844Z,101371.53
2023-04-08T21:31:23.420Z,101378.34
2023-04-08T21:33:51.149Z,101375.72
2023-04-08T21:36:20.335Z,101379.03
2023-04-08T21:38:48.091Z,101380.69
2023-04-08T21:41:15.723Z,101380.44
2023-04-08T21:43:43.550Z,101382.91
2023-04-08T21:46:11.529Z,101383.75
2023-04-08T21:48:39.170Z,101385.50
2023-04-08T21:51:07.090Z,101389.84
2023-04-08T21:53:35.375Z,101385.63
2023-04-08T21:56:03.455Z,101389.00
2023-04-08T21:58:31.269Z,101391.53
2023-04-08T22:00:59.136Z,101392.44
2023-04-08T22:03:27.674Z,101387.16
2023-04-08T22:05:55.609Z,101390.56
2023-04-08T22:08:23.246Z,101385.28
2023-04-08T22:10:51.460Z,101392.09
2023-04-08T22:13:20.622Z,101392.91
2023-04-08T22:15:48.610Z,101390.31
2023-04-08T22:18:17.466Z,101380.72
2023-04-08T22:20:45.395Z,101388.25
2023-04-08T22:23:13.133Z,101383.88
2023-04-08T22:25:41.081Z,101392.25
2023-04-08T22:28:09.749Z,101385.88
2023-04-08T22:30:37.425Z,101386.59
2023-04-08T22:33:05.332Z,101384.53
2023-04-08T22:35:33.500Z,101388.59
2023-04-08T22:38:01.261Z,101388.50
2023-04-08T22:40:29.734Z,101384.81
2023-04-08T22:42:58.032Z,101385.00
2023-04-08T22:45:26.395Z,101388.38
2023-04-08T22:47:54.534Z,101386.41
2023-04-08T22:50:23.249Z,101382.88
2023-04-08T22:52:51.436Z,101389.66
2023-04-08T22:55:19.688Z,101384.97
2023-04-08T22:57:47.553Z,101385.44
2023-04-08T23:00:16.752Z,101387.72
2023-04-08T23:02:44.948Z,101391.16
2023-04-08T23:05:13.034Z,101386.06
2023-04-08T23:07:40.759Z,101388.72
2023-04-08T23:10:11.546Z,101394.81
2023-04-08T23:12:40.513Z,101394.13
2023-04-08T23:15:08.894Z,101394.50
2023-04-08T23:17:37.070Z,101394.72
2023-04-08T23:20:05.847Z,101397.53
2023-04-08T23:22:33.584Z,101399.34
2023-04-08T23:25:01.532Z,101401.88
2023-04-08T23:27:29.524Z,101404.16
2023-04-08T23:29:57.053Z,101404.91
2023-04-08T23:32:25.196Z,101415.34
2023-04-08T23:34:53.234Z,101408.31
2023-04-08T23:37:20.991Z,101413.56
2023-04-08T23:39:53.118Z,101414.63
2023-04-08T23:42:20.878Z,101415.72
2023-04-08T23:44:49.048Z,101419.22
2023-04-08T23:47:16.735Z,101418.16
2023-04-08T23:49:45.044Z,101422.25
2023-04-08T23:52:13.200Z,101418.63
2023-04-08T23:54:41.250Z,101416.22
2023-04-08T23:57:08.875Z,101413.13
2023-04-08T23:59:36.424Z,101419.22
